createdAt,value
2022-12-20T00:00:44.286Z,5.36
2022-12-20T00:03:33.236Z,5.08
2022-12-20T00:06:21.933Z,5.29
2022-12-20T00:09:10.415Z,5.27
2022-12-20T00:11:58.059Z,5.11
2022-12-20T00:14:45.505Z,4.92
2022-12-20T00:17:33.360Z,5.10
2022-12-20T00:20:22.566Z,5.01
2022-12-20T00:23:10.466Z,4.74
2022-12-20T00:26:02.792Z,4.56
2022-12-20T00:28:50.727Z,5.14
2022-12-20T00:31:39.002Z,5.05
2022-12-20T00:34:26.849Z,5.08
2022-12-20T00:37:18.225Z,4.88
2022-12-20T00:40:06.479Z,4.91
2022-12-20T00:42:53.868Z,5.17
2022-12-20T00:45:41.395Z,5.13
2022-12-20T00:48:30.398Z,5.02
2022-12-20T00:51:20.387Z,5.13
2022-12-20T00:54:09.444Z,5.29
2022-12-20T00:56:56.836Z,5.31
2022-12-20T00:59:44.208Z,5.34
2022-12-20T01:02:31.676Z,5.33
2022-12-20T01:05:20.124Z,5.46
2022-12-20T01:08:08.302Z,5.43
2022-12-20T01:11:05.351Z,5.43
2022-12-20T01:13:56.271Z,5.44
2022-12-20T01:16:46.301Z,5.41
2022-12-20T01:19:35.115Z,5.28
2022-12-20T01:22:22.884Z,5.40
2022-12-20T01:25:10.959Z,5.49
2022-12-20T01:28:00.004Z,5.34
2022-12-20T01:30:47.806Z,5.39
2022-12-20T01:33:35.830Z,5.26
2022-12-20T01:36:26.173Z,5.27
2022-12-20T01:39:15.954Z,5.29
2022-12-20T01:42:03.278Z,5.27
2022-12-20T01:44:57.733Z,5.27
2022-12-20T01:47:45.383Z,5.06
2022-12-20T01:50:33.032Z,5.20
2022-12-20T01:53:24.386Z,5.11
2022-12-20T01:56:13.024Z,5.19
2022-12-20T01:59:02.153Z,5.24
2022-12-20T02:01:51.334Z,5.21
2022-12-20T02:04:39.299Z,5.20
2022-12-20T02:07:29.778Z,5.13
2022-12-20T02:10:20.174Z,5.06
2022-12-20T02:13:14.093Z,5.31
2022-12-20T02:16:01.922Z,5.43
2022-12-20T02:19:01.630Z,5.43
2022-12-20T02:21:56.929Z,5.33
2022-12-20T02:25:06.377Z,5.32
2022-12-20T02:28:02.821Z,5.19
2022-12-20T02:30:56.258Z,5.32
2022-12-20T02:33:48.795Z,5.30
2022-12-20T02:36:36.677Z,5.22
2022-12-20T02:39:29.552Z,5.20
2022-12-20T02:42:22.443Z,5.29
2022-12-20T02:45:17.866Z,5.34
2022-12-20T02:48:12.416Z,5.38
2022-12-20T02:51:01.882Z,5.40
2022-12-20T02:53:49.936Z,5.50
2022-12-20T02:56:42.484Z,5.44
2022-12-20T02:59:35.925Z,5.45
2022-12-20T03:02:26.003Z,5.50
2022-12-20T03:05:16.453Z,5.43
2022-12-20T03:08:04.623Z,5.50
2022-12-20T03:10:54.063Z,5.49
2022-12-20T03:13:42.124Z,5.54
2022-12-20T03:16:30.467Z,5.50
2022-12-20T03:19:18.172Z,5.41
2022-12-20T03:22:07.141Z,5.36
2022-12-20T03:24:54.448Z,5.25
2022-12-20T03:27:41.890Z,5.15
2022-12-20T03:30:30.085Z,5.33
2022-12-20T03:33:17.484Z,5.27
2022-12-20T03:36:05.202Z,5.43
2022-12-20T03:38:55.214Z,5.34
2022-12-20T03:41:45.023Z,5.28
2022-12-20T03:44:36.812Z,5.48
2022-12-20T03:47:25.058Z,5.43
2022-12-20T03:50:13.966Z,5.48
2022-12-20T03:53:03.280Z,5.50
2022-12-20T03:55:53.107Z,5.36
2022-12-20T03:58:41.005Z,5.44
2022-12-20T04:01:30.926Z,5.46
2022-12-20T04:04:18.686Z,5.35
2022-12-20T04:07:06.344Z,5.12
2022-12-20T04:09:56.429Z,5.20
2022-12-20T04:12:45.207Z,5.21
2022-12-20T04:15:35.215Z,5.11
2022-12-20T04:18:23.334Z,5.13
2022-12-20T04:21:11.970Z,5.25
2022-12-20T04:24:04.666Z,5.27
2022-12-20T04:27:05.604Z,5.19
2022-12-20T04:29:54.918Z,5.21
2022-12-20T04:32:43.517Z,5.20
2022-12-20T04:35:33.101Z,5.10
2022-12-20T04:38:23.127Z,5.06
2022-12-20T04:41:22.637Z,5.02
2022-12-20T04:44:16.372Z,5.00
2022-12-20T04:47:05.441Z,4.95
2022-12-20T04:49:53.412Z,4.96
2022-12-20T04:52:58.419Z,5.06
2022-12-20T04:55:46.769Z,5.02
2022-12-20T04:58:35.715Z,5.01
2022-12-20T05:01:25.905Z,4.99
2022-12-20T05:04:15.840Z,4.96
2022-12-20T05:07:03.779Z,4.97
2022-12-20T05:09:51.864Z,5.06
2022-12-20T05:12:39.533Z,5.10
2022-12-20T05:15:29.928Z,5.10
2022-12-20T05:18:17.637Z,5.07
2022-12-20T05:21:31.261Z,5.13
2022-12-20T05:24:32.635Z,5.19
2022-12-20T05:27:30.706Z,5.20
2022-12-20T05:30:19.047Z,5.25
2022-12-20T05:33:06.851Z,5.18
2022-12-20T05:35:54.545Z,5.18
2022-12-20T05:38:44.086Z,5.25
2022-12-20T05:41:36.566Z,5.21
2022-12-20T05:44:24.355Z,5.23
2022-12-20T05:47:16.862Z,5.22
2022-12-20T05:50:05.401Z,5.16
2022-12-20T05:52:59.281Z,5.26
2022-12-20T05:55:51.343Z,5.33
2022-12-20T05:58:40.506Z,5.25
2022-12-20T06:01:29.606Z,5.27
2022-12-20T06:04:20.545Z,5.28
2022-12-20T06:07:08.784Z,5.23
2022-12-20T06:09:57.817Z,5.21
2022-12-20T06:13:03.941Z,5.25
2022-12-20T06:15:52.069Z,5.24
2022-12-20T06:18:40.723Z,5.37
2022-12-20T06:21:29.028Z,5.26
2022-12-20T06:24:17.497Z,5.37
2022-12-20T06:27:07.547Z,5.28
2022-12-20T06:29:56.487Z,5.35
2022-12-20T06:32:48.062Z,5.31
2022-12-20T06:35:35.647Z,5.33
2022-12-20T06:38:23.217Z,5.33
2022-12-20T06:41:11.105Z,5.22
2022-12-20T06:44:00.279Z,5.30
2022-12-20T06:46:49.398Z,5.30
2022-12-20T06:49:37.606Z,5.34
2022-12-20T06:52:31.496Z,5.43
2022-12-20T06:55:20.017Z,5.43
2022-12-20T06:58:07.990Z,5.53
2022-12-20T07:00:58.469Z,5.51
2022-12-20T07:03:47.891Z,5.55
2022-12-20T07:06:35.573Z,5.55
2022-12-20T07:09:23.507Z,5.60
2022-12-20T07:12:11.666Z,5.68
2022-12-20T07:14:59.207Z,5.70
2022-12-20T07:17:46.913Z,5.76
2022-12-20T07:20:35.867Z,5.75
2022-12-20T07:23:23.610Z,5.74
2022-12-20T07:26:11.456Z,5.84
2022-12-20T07:28:59.296Z,5.78
2022-12-20T07:31:47.124Z,5.76
2022-12-20T07:34:34.885Z,5.70
2022-12-20T07:37:23.833Z,5.85
2022-12-20T07:40:14.962Z,5.76
2022-12-20T07:43:02.788Z,5.83
2022-12-20T07:45:50.385Z,5.84
2022-12-20T07:48:38.179Z,5.85
2022-12-20T07:51:29.662Z,5.80
2022-12-20T07:54:23.226Z,5.85
2022-12-20T07:57:16.598Z,5.85
2022-12-20T08:00:05.847Z,5.84
2022-12-20T08:03:05.696Z,5.78
2022-12-20T08:05:55.680Z,5.88
2022-12-20T08:08:51.798Z,5.81
2022-12-20T08:11:42.490Z,5.91
2022-12-20T08:14:30.107Z,5.83
2022-12-20T08:17:17.773Z,5.88
2022-12-20T08:20:07.160Z,5.82
2022-12-20T08:22:54.708Z,5.83
2022-12-20T08:25:42.505Z,5.76
2022-12-20T08:28:31.520Z,5.78
2022-12-20T08:31:19.034Z,5.74
2022-12-20T08:34:06.682Z,5.76
2022-12-20T08:36:54.454Z,5.78
2022-12-20T08:39:42.144Z,5.71
2022-12-20T08:42:29.737Z,5.82
2022-12-20T08:45:20.354Z,5.91
2022-12-20T08:48:07.974Z,5.93
2022-12-20T08:50:59.484Z,5.97
2022-12-20T08:53:46.866Z,5.86
2022-12-20T08:56:34.312Z,5.91
2022-12-20T08:59:21.806Z,5.94
2022-12-20T09:02:11.000Z,5.92
2022-12-20T09:04:58.674Z,5.94
2022-12-20T09:07:46.325Z,5.97
2022-12-20T09:10:33.829Z,5.99
2022-12-20T09:13:22.997Z,6.10
2022-12-20T09:16:10.978Z,6.14
2022-12-20T09:19:05.452Z,6.22
2022-12-20T09:21:55.585Z,6.16
2022-12-20T09:24:43.016Z,6.23
2022-12-20T09:27:30.807Z,6.10
2022-12-20T09:30:18.827Z,6.10
2022-12-20T09:33:08.564Z,6.14
2022-12-20T09:36:00.815Z,6.18
2022-12-20T09:38:49.327Z,6.20
2022-12-20T09:41:40.711Z,6.29
2022-12-20T09:44:32.399Z,6.39
2022-12-20T09:47:23.626Z,6.46
2022-12-20T09:50:17.891Z,6.41
2022-12-20T09:53:18.746Z,6.35
2022-12-20T09:56:13.611Z,6.44
2022-12-20T09:59:04.030Z,6.56
2022-12-20T10:01:51.971Z,6.55
2022-12-20T10:04:40.431Z,6.71
2022-12-20T10:07:40.412Z,6.70
2022-12-20T10:10:50.344Z,6.78
2022-12-20T10:13:52.656Z,6.88
2022-12-20T10:16:46.235Z,6.94
2022-12-20T10:20:02.105Z,7.07
2022-12-20T10:22:54.706Z,7.22
2022-12-20T10:25:45.182Z,7.38
2022-12-20T10:28:36.055Z,7.44
2022-12-20T10:31:25.550Z,7.67
2022-12-20T10:34:13.315Z,8.11
2022-12-20T10:37:14.613Z,8.62
2022-12-20T10:40:07.265Z,9.00
2022-12-20T10:42:57.539Z,9.54
2022-12-20T10:45:47.398Z,9.76
2022-12-20T10:48:37.440Z,9.95
2022-12-20T10:51:25.079Z,10.10
2022-12-20T10:54:25.055Z,10.12
2022-12-20T10:57:21.213Z,10.20
2022-12-20T11:00:30.577Z,10.18
2022-12-20T11:03:21.204Z,10.40
2022-12-20T11:06:17.882Z,10.36
2022-12-20T11:09:25.451Z,10.31
2022-12-20T11:12:16.051Z,10.34
2022-12-20T11:15:20.804Z,10.48
2022-12-20T11:18:29.433Z,10.51
2022-12-20T11:21:31.927Z,10.49
2022-12-20T11:24:33.503Z,10.51
2022-12-20T11:27:32.724Z,10.62
2022-12-20T11:30:23.607Z,10.71
2022-12-20T11:33:41.016Z,10.81
2022-12-20T11:36:39.777Z,10.83
2022-12-20T11:39:33.946Z,10.82
2022-12-20T11:42:34.180Z,10.83
2022-12-20T11:45:32.055Z,10.88
2022-12-20T11:48:40.526Z,10.87
2022-12-20T11:51:37.118Z,10.88
2022-12-20T11:54:31.265Z,10.79
2022-12-20T11:57:24.621Z,10.62
2022-12-20T12:00:16.172Z,10.64
2022-12-20T12:03:14.571Z,10.77
2022-12-20T12:06:08.648Z,10.84
2022-12-20T12:09:07.372Z,10.82
2022-12-20T12:12:09.281Z,10.89
2022-12-20T12:15:04.656Z,10.92
2022-12-20T12:18:00.183Z,10.96
2022-12-20T12:21:00.116Z,11.01
2022-12-20T12:24:04.116Z,11.14
2022-12-20T12:26:51.644Z,11.06
2022-12-20T12:29:39.531Z,11.09
2022-12-20T12:32:32.559Z,11.13
2022-12-20T12:35:40.489Z,11.15
2022-12-20T12:39:02.184Z,11.11
2022-12-20T12:42:30.819Z,11.08
2022-12-20T12:45:22.605Z,10.91
2022-12-20T12:48:17.809Z,10.75
2022-12-20T12:51:06.595Z,10.76
2022-12-20T12:54:03.584Z,10.64
2022-12-20T12:56:52.077Z,10.62
2022-12-20T12:59:46.303Z,10.67
2022-12-20T13:02:51.352Z,10.68
2022-12-20T13:05:39.284Z,10.74
2022-12-20T13:08:50.969Z,10.77
2022-12-20T13:11:46.682Z,10.65
2022-12-20T13:14:54.068Z,10.66
2022-12-20T13:17:52.203Z,10.71
2022-12-20T13:20:40.868Z,10.57
2022-12-20T13:23:28.503Z,10.45
2022-12-20T13:26:51.713Z,10.52
2022-12-20T13:30:00.968Z,10.46
2022-12-20T13:33:26.802Z,10.42
2022-12-20T13:36:38.000Z,10.47
2022-12-20T13:39:35.965Z,10.47
2022-12-20T13:42:35.727Z,10.15
2022-12-20T13:45:24.457Z,9.94
2022-12-20T13:48:18.256Z,9.85
2022-12-20T13:51:07.978Z,9.85
2022-12-20T13:53:57.811Z,9.70
2022-12-20T13:56:49.571Z,9.28
2022-12-20T13:59:39.151Z,9.24
2022-12-20T14:02:31.756Z,9.33
2022-12-20T14:05:23.623Z,9.50
2022-12-20T14:08:16.163Z,9.56
2022-12-20T14:11:11.744Z,9.46
2022-12-20T14:14:00.889Z,9.45
2022-12-20T14:16:49.879Z,9.70
2022-12-20T14:19:37.785Z,9.66
2022-12-20T14:22:25.711Z,9.70
2022-12-20T14:25:17.867Z,9.76
2022-12-20T14:28:06.112Z,9.87
2022-12-20T14:30:53.868Z,9.90
2022-12-20T14:33:44.063Z,9.88
2022-12-20T14:36:32.053Z,10.08
2022-12-20T14:39:27.648Z,10.30
2022-12-20T14:42:19.464Z,10.36
2022-12-20T14:45:18.540Z,10.38
2022-12-20T14:48:08.924Z,10.39
2022-12-20T14:50:58.259Z,10.38
2022-12-20T14:53:48.364Z,10.49
2022-12-20T14:56:36.153Z,10.39
2022-12-20T14:59:27.160Z,10.41
2022-12-20T15:02:38.673Z,10.56
2022-12-20T15:05:50.125Z,10.55
2022-12-20T15:08:42.317Z,10.52
2022-12-20T15:11:33.980Z,10.41
2022-12-20T15:14:34.167Z,10.39
2022-12-20T15:17:27.277Z,10.48
2022-12-20T15:20:19.173Z,10.40
2022-12-20T15:23:10.606Z,10.27
2022-12-20T15:25:59.530Z,10.22
2022-12-20T15:28:47.837Z,10.26
2022-12-20T15:31:37.648Z,10.17
2022-12-20T15:34:31.246Z,10.27
2022-12-20T15:37:19.298Z,10.20
2022-12-20T15:40:08.986Z,10.11
2022-12-20T15:42:57.916Z,10.08
2022-12-20T15:45:47.246Z,9.97
2022-12-20T15:48:35.088Z,9.81
2022-12-20T15:51:33.173Z,9.67
2022-12-20T15:54:27.807Z,9.55
2022-12-20T15:57:16.697Z,9.45
2022-12-20T16:00:07.825Z,9.33
2022-12-20T16:03:01.884Z,9.38
2022-12-20T16:05:51.503Z,9.49
2022-12-20T16:08:40.331Z,9.49
2022-12-20T16:11:32.427Z,9.42
2022-12-20T16:14:22.902Z,9.53
2022-12-20T16:17:15.443Z,9.52
2022-12-20T16:20:03.381Z,9.63
2022-12-20T16:22:51.095Z,9.64
2022-12-20T16:25:38.556Z,9.56
2022-12-20T16:28:26.473Z,9.60
2022-12-20T16:31:23.793Z,9.46
2022-12-20T16:34:15.428Z,9.48
2022-12-20T16:37:02.905Z,9.39
2022-12-20T16:39:50.855Z,9.46
2022-12-20T16:42:38.786Z,9.46
2022-12-20T16:45:28.752Z,9.48
2022-12-20T16:48:16.609Z,9.58
2022-12-20T16:51:13.756Z,9.56
2022-12-20T16:54:21.054Z,9.32
2022-12-20T16:57:11.843Z,9.28
2022-12-20T16:59:59.852Z,9.18
2022-12-20T17:02:47.813Z,9.45
2022-12-20T17:05:39.794Z,9.40
2022-12-20T17:11:37.085Z,9.51
2022-12-20T17:14:25.334Z,9.57
2022-12-20T17:17:12.938Z,9.49
2022-12-20T17:20:00.358Z,9.51
2022-12-20T17:22:51.180Z,9.54
2022-12-20T17:25:40.520Z,9.57
2022-12-20T17:28:28.830Z,9.57
2022-12-20T17:31:29.732Z,9.58
2022-12-20T17:34:21.585Z,9.40
2022-12-20T17:37:09.566Z,9.50
2022-12-20T17:39:57.074Z,9.62
2022-12-20T17:42:46.104Z,9.64
2022-12-20T17:45:36.460Z,9.57
2022-12-20T17:48:32.125Z,9.51
2022-12-20T17:51:23.713Z,9.59
2022-12-20T17:54:19.295Z,9.72
2022-12-20T17:57:08.033Z,9.68
2022-12-20T17:59:58.406Z,9.51
2022-12-20T18:02:48.056Z,9.74
2022-12-20T18:05:35.909Z,9.82
2022-12-20T18:08:23.917Z,9.69
2022-12-20T18:11:13.041Z,9.67
2022-12-20T18:14:02.564Z,9.31
2022-12-20T18:16:51.651Z,9.32
2022-12-20T18:19:41.250Z,9.57
2022-12-20T18:22:29.296Z,9.52
2022-12-20T18:25:18.543Z,9.52
2022-12-20T18:28:10.772Z,9.39
2022-12-20T18:31:05.273Z,9.05
2022-12-20T18:33:58.220Z,8.56
2022-12-20T18:36:46.873Z,8.36
2022-12-20T18:39:34.810Z,8.12
2022-12-20T18:42:22.626Z,8.00
2022-12-20T18:45:11.579Z,7.93
2022-12-20T18:47:59.026Z,7.85
2022-12-20T18:50:52.649Z,7.67
2022-12-20T18:53:48.583Z,7.64
2022-12-20T18:56:39.601Z,7.23
2022-12-20T18:59:27.243Z,7.05
2022-12-20T19:02:15.945Z,7.27
2022-12-20T19:05:04.006Z,7.50
2022-12-20T19:07:53.643Z,7.57
2022-12-20T19:10:41.243Z,7.67
2022-12-20T19:13:28.867Z,7.70
2022-12-20T19:16:18.763Z,7.66
2022-12-20T19:19:07.125Z,7.53
2022-12-20T19:21:54.683Z,7.44
2022-12-20T19:24:43.788Z,7.39
2022-12-20T19:27:31.936Z,7.45
2022-12-20T19:30:19.608Z,7.62
2022-12-20T19:33:07.090Z,7.52
2022-12-20T19:35:56.074Z,7.29
2022-12-20T19:38:45.154Z,7.36
2022-12-20T19:41:36.062Z,7.23
2022-12-20T19:44:23.882Z,7.14
2022-12-20T19:47:11.346Z,7.21
2022-12-20T19:49:58.917Z,7.18
2022-12-20T19:52:47.787Z,7.08
2022-12-20T19:55:35.465Z,7.09
2022-12-20T19:58:25.862Z,6.99
2022-12-20T20:01:14.057Z,7.14
2022-12-20T20:04:03.075Z,7.35
2022-12-20T20:06:50.682Z,7.48
2022-12-20T20:09:38.602Z,7.46
2022-12-20T20:12:26.337Z,7.49
2022-12-20T20:15:15.254Z,7.34
2022-12-20T20:18:03.054Z,7.33
2022-12-20T20:20:51.471Z,7.52
2022-12-20T20:23:39.873Z,7.54
2022-12-20T20:26:29.430Z,7.54
2022-12-20T20:29:17.312Z,7.50
2022-12-20T20:32:07.795Z,7.36
2022-12-20T20:34:55.597Z,7.39
2022-12-20T20:37:43.342Z,7.31
2022-12-20T20:40:31.019Z,7.30
2022-12-20T20:43:20.515Z,7.33
2022-12-20T20:46:10.208Z,7.32
2022-12-20T20:48:59.875Z,7.29
2022-12-20T20:51:48.200Z,7.52
2022-12-20T20:54:36.614Z,7.44
2022-12-20T20:57:24.532Z,7.54
2022-12-20T21:00:13.099Z,7.46
2022-12-20T21:03:00.709Z,7.46
2022-12-20T21:09:00.543Z,7.43
2022-12-20T21:11:48.360Z,7.46
2022-12-20T21:15:12.600Z,7.32
2022-12-20T21:17:45.040Z,7.31
2022-12-20T21:20:32.673Z,7.34
2022-12-20T21:23:21.660Z,7.30
2022-12-20T21:26:09.609Z,7.25
2022-12-20T21:29:01.727Z,7.28
2022-12-20T21:31:50.201Z,7.40
2022-12-20T21:34:38.570Z,7.27
2022-12-20T21:37:26.513Z,7.27
2022-12-20T21:40:15.957Z,7.44
2022-12-20T21:43:03.275Z,7.51
2022-12-20T21:45:52.134Z,7.40
2022-12-20T21:48:40.314Z,7.27
2022-12-20T21:51:29.550Z,7.00
2022-12-20T21:54:17.062Z,7.12
2022-12-20T21:57:06.124Z,7.16
2022-12-20T21:59:53.614Z,6.88
2022-12-20T22:02:41.188Z,6.65
2022-12-20T22:05:29.156Z,6.64
2022-12-20T22:08:17.165Z,6.74
2022-12-20T22:11:06.785Z,6.56
2022-12-20T22:13:57.078Z,6.87
2022-12-20T22:16:44.884Z,7.15
2022-12-20T22:19:32.624Z,7.19
2022-12-20T22:22:21.265Z,7.39
2022-12-20T22:25:09.694Z,7.67
2022-12-20T22:27:57.365Z,7.68
2022-12-20T22:30:46.753Z,7.63
2022-12-20T22:33:34.081Z,7.46
2022-12-20T22:36:21.505Z,7.32
2022-12-20T22:39:09.159Z,7.13
2022-12-20T22:41:56.785Z,7.33
2022-12-20T22:44:44.905Z,7.40
2022-12-20T22:47:34.365Z,7.61
2022-12-20T22:50:22.015Z,7.57
2022-12-20T22:53:09.715Z,7.53
2022-12-20T22:55:57.585Z,7.77
2022-12-20T22:58:45.563Z,7.66
2022-12-20T23:01:33.381Z,7.76
2022-12-20T23:04:22.739Z,7.76
2022-12-20T23:07:10.149Z,7.89
2022-12-20T23:09:57.802Z,7.91
2022-12-20T23:13:02.455Z,7.90
2022-12-20T23:15:50.444Z,7.80
2022-12-20T23:18:37.864Z,7.64
2022-12-20T23:21:44.997Z,7.72
2022-12-20T23:24:32.449Z,7.68
2022-12-20T23:27:20.085Z,7.63
2022-12-20T23:30:09.896Z,7.38
2022-12-20T23:32:57.565Z,7.50
2022-12-20T23:35:45.486Z,7.58
2022-12-20T23:38:35.647Z,7.56
2022-12-20T23:41:23.644Z,7.39
2022-12-20T23:44:11.345Z,7.20
2022-12-20T23:46:58.914Z,7.10
2022-12-20T23:49:46.390Z,7.04
2022-12-20T23:52:33.909Z,7.14
2022-12-20T23:55:23.207Z,7.20
2022-12-20T23:58:11.175Z,7.16
